Time;durP1;ratioP1;P1;durP2;ratioP2;P2;SDS_P1;SDS_P2;PMS_P1;PMS_P2;Temp;Humidity;BMP_temperature;BMP_pressure;BME280_temperature;BME280_humidity;BME280_pressure;Samples;Min_cycle;Max_cycle;Signal;HPM_P1;HPM_P2
2023/06/07 00:01:12;;;;;;;7.47;6.78;;;;;;;17.00;100.00;95743.66;5082782;28;20048;-65
2023/06/07 00:03:37;;;;;;;6.88;6.30;;;;;;;16.95;100.00;95751.34;5095386;28;20031;-65
2023/06/07 00:06:05;;;;;;;7.55;6.93;;;;;;;16.95;100.00;95746.03;5085711;28;20051;-65
2023/06/07 00:08:31;;;;;;;7.35;6.80;;;;;;;16.95;100.00;95751.34;5081757;28;20492;-65
2023/06/07 00:10:57;;;;;;;8.60;6.97;;;;;;;16.88;100.00;95746.72;5087851;28;20428;-65
2023/06/07 00:13:23;;;;;;;7.15;6.43;;;;;;;16.87;100.00;95753.03;5086261;28;20019;-65
2023/06/07 00:15:49;;;;;;;7.20;6.50;;;;;;;16.84;100.00;95761.38;5084400;28;20020;-65
2023/06/07 00:18:16;;;;;;;8.00;7.20;;;;;;;16.80;100.00;95760.09;5081594;28;20048;-65
2023/06/07 00:20:45;;;;;;;9.50;7.43;;;;;;;16.79;100.00;95768.25;5084607;28;20024;-65
2023/06/07 00:23:14;;;;;;;7.85;7.13;;;;;;;16.84;100.00;95761.38;5079052;28;20156;-65
2023/06/07 00:25:40;;;;;;;7.80;6.85;;;;;;;16.79;100.00;95773.56;5086652;28;20020;-65
2023/06/07 00:28:06;;;;;;;7.35;6.72;;;;;;;16.71;100.00;95764.66;5083049;28;20024;-65
2023/06/07 00:30:31;;;;;;;7.50;6.80;;;;;;;16.76;100.00;95769.44;5084313;28;20863;-65
2023/06/07 00:32:56;;;;;;;7.55;6.93;;;;;;;16.72;100.00;95773.47;5080302;28;20773;-64
2023/06/07 00:35:22;;;;;;;7.20;6.60;;;;;;;16.70;100.00;95773.63;5083941;28;20032;-64
2023/06/07 00:37:48;;;;;;;7.53;6.82;;;;;;;16.64;100.00;95784.16;5088367;28;20107;-64
2023/06/07 00:40:13;;;;;;;8.13;7.32;;;;;;;16.54;100.00;95787.88;5084116;28;20084;-64
2023/06/07 00:42:38;;;;;;;8.05;7.43;;;;;;;16.40;100.00;95788.63;5080802;28;20016;-64
2023/06/07 00:45:04;;;;;;;9.95;7.18;;;;;;;16.39;100.00;95785.16;5081704;28;20044;-64
2023/06/07 00:47:30;;;;;;;8.27;7.63;;;;;;;16.41;100.00;95792.94;5087601;28;20074;-64
2023/06/07 00:49:56;;;;;;;7.80;7.20;;;;;;;16.39;100.00;95790.47;5079987;28;20077;-64
2023/06/07 00:52:22;;;;;;;9.95;7.45;;;;;;;16.40;100.00;95799.25;5085423;28;20028;-65
2023/06/07 00:54:48;;;;;;;7.80;7.20;;;;;;;16.38;100.00;95787.97;5084870;28;20024;-64
2023/06/07 00:57:16;;;;;;;8.98;7.65;;;;;;;16.29;100.00;95795.16;5079280;28;20021;-65
2023/06/07 00:59:42;;;;;;;8.32;7.63;;;;;;;16.30;100.00;95791.50;5080282;28;20028;-64
2023/06/07 01:02:08;;;;;;;8.32;7.53;;;;;;;16.29;100.00;95797.81;5079424;28;20543;-64
2023/06/07 01:04:40;;;;;;;8.05;7.35;;;;;;;16.31;100.00;95801.13;5083409;28;20052;-64
2023/06/07 01:07:07;;;;;;;8.13;7.07;;;;;;;16.29;100.00;95801.31;5082212;28;20037;-64
2023/06/07 01:09:34;;;;;;;8.48;7.45;;;;;;;16.25;100.00;95805.34;5074339;28;20110;-64
2023/06/07 01:12:02;;;;;;;8.10;7.40;;;;;;;16.25;100.00;95805.34;5083609;28;20034;-64
2023/06/07 01:14:28;;;;;;;7.78;6.97;;;;;;;16.21;100.00;95806.66;5084250;28;20042;-64
2023/06/07 01:16:56;;;;;;;7.70;7.10;;;;;;;16.16;100.00;95815.19;5087222;28;20025;-64
2023/06/07 01:19:25;;;;;;;8.40;7.60;;;;;;;16.14;100.00;95813.69;5090860;28;20034;-64
2023/06/07 01:21:56;;;;;;;8.50;7.60;;;;;;;16.20;100.00;95814.81;5085723;28;20158;-64
2023/06/07 01:24:22;;;;;;;8.00;7.28;;;;;;;16.21;100.00;95804.00;5085904;28;20404;-64
2023/06/07 01:26:53;;;;;;;8.05;7.25;;;;;;;16.10;100.00;95807.06;5081369;28;20051;-65
2023/06/07 01:29:21;;;;;;;8.88;7.97;;;;;;;16.10;100.00;95810.53;5093771;28;20472;-64
2023/06/07 01:31:49;;;;;;;10.98;7.28;;;;;;;16.03;100.00;95809.59;5086316;28;20024;-64
2023/06/07 01:34:15;;;;;;;8.32;7.40;;;;;;;16.00;100.00;95813.41;5085166;28;20085;-64
2023/06/07 01:36:41;;;;;;;8.63;7.82;;;;;;;16.03;100.00;95812.25;5093258;28;20029;-64
2023/06/07 01:39:07;;;;;;;12.07;7.15;;;;;;;15.94;100.00;95803.47;5089118;28;20082;-64
2023/06/07 01:41:34;;;;;;;8.25;7.65;;;;;;;15.85;100.00;95812.47;5082651;28;20458;-65
2023/06/07 01:44:00;;;;;;;8.40;7.57;;;;;;;15.84;100.00;95813.47;5083799;28;20032;-64
2023/06/07 01:46:26;;;;;;;9.70;7.35;;;;;;;15.73;100.00;95809.34;5089669;28;20096;-64
2023/06/07 01:48:52;;;;;;;8.35;7.55;;;;;;;15.66;100.00;95814.50;5086784;28;20035;-64
2023/06/07 01:51:18;;;;;;;8.13;7.32;;;;;;;15.65;100.00;95812.03;5086105;28;20492;-64
2023/06/07 01:53:45;;;;;;;8.07;6.90;;;;;;;15.59;100.00;95818.88;5088378;28;20024;-64
2023/06/07 01:56:25;;;;;;;9.55;7.90;;;;;;;15.55;100.00;95820.16;5081371;28;20073;-65
2023/06/07 01:59:18;;;;;;;8.25;7.63;;;;;;;15.51;100.00;95813.56;5085058;28;20028;-64
2023/06/07 02:01:57;;;;;;;8.80;7.60;;;;;;;15.47;100.00;95808.59;5084090;28;20051;-64
2023/06/07 02:04:26;;;;;;;8.25;7.60;;;;;;;15.46;100.00;95812.25;5088105;28;20423;-64
2023/06/07 02:06:54;;;;;;;8.00;7.30;;;;;;;15.41;100.00;95814.59;5081997;28;20063;-64
2023/06/07 02:09:23;;;;;;;7.78;7.18;;;;;;;15.39;100.00;95816.59;5086944;28;20027;-64
2023/06/07 02:11:49;;;;;;;8.45;7.75;;;;;;;15.37;100.00;95815.94;5085002;28;20020;-64
2023/06/07 02:14:17;;;;;;;8.43;7.63;;;;;;;15.39;100.00;95816.59;5087839;28;20055;-64
2023/06/07 02:16:43;;;;;;;10.07;7.53;;;;;;;15.35;100.00;95817.88;5085160;28;20107;-64
2023/06/07 02:19:09;;;;;;;8.20;7.47;;;;;;;15.34;100.00;95818.88;5084130;28;20032;-64
2023/06/07 02:21:38;;;;;;;8.18;7.47;;;;;;;15.33;100.00;95825.19;5085355;28;20075;-64
2023/06/07 02:24:05;;;;;;;8.30;7.63;;;;;;;15.33;100.00;95820.72;5086163;28;20024;-64
2023/06/07 02:26:32;;;;;;;9.07;8.15;;;;;;;15.32;100.00;95807.63;5087939;28;20114;-64
2023/06/07 02:28:58;;;;;;;8.93;8.15;;;;;;;15.40;100.00;95820.88;5083808;28;20673;-64
2023/06/07 02:31:23;;;;;;;8.43;7.50;;;;;;;15.46;100.00;95820.22;5084937;28;20076;-64
2023/06/07 02:33:49;;;;;;;10.35;7.57;;;;;;;15.41;100.00;95819.88;5085640;28;20428;-64
2023/06/07 02:36:17;;;;;;;9.00;7.65;;;;;;;15.28;100.00;95824.88;5090347;28;20024;-64
2023/06/07 02:38:43;;;;;;;8.43;7.47;;;;;;;15.31;100.00;95821.88;5088517;28;20020;-64
2023/06/07 02:41:08;;;;;;;9.18;8.27;;;;;;;15.31;100.00;95824.53;5081244;28;20031;-64
2023/06/07 02:43:33;;;;;;;8.85;7.93;;;;;;;15.30;100.00;95833.50;5083413;28;20044;-64
2023/06/07 02:45:59;;;;;;;9.25;8.25;;;;;;;15.32;100.00;95837.66;5085085;28;20035;-64
2023/06/07 02:48:24;;;;;;;8.38;7.55;;;;;;;15.32;100.00;95834.16;5087347;28;20115;-64
2023/06/07 02:50:50;;;;;;;10.15;7.85;;;;;;;15.31;100.00;95838.63;5088816;28;20023;-64
2023/06/07 02:53:15;;;;;;;8.48;7.78;;;;;;;15.31;100.00;95845.75;5084577;28;20050;-64
2023/06/07 02:55:41;;;;;;;7.93;7.22;;;;;;;15.30;100.00;95844.09;5084806;28;20031;-64
2023/06/07 02:58:07;;;;;;;8.65;7.97;;;;;;;15.26;100.00;95846.28;5084953;28;20028;-64
2023/06/07 03:00:32;;;;;;;8.57;7.88;;;;;;;15.22;100.00;95842.28;5090983;28;20035;-64
2023/06/07 03:02:58;;;;;;;8.10;7.15;;;;;;;15.12;100.00;95842.44;5088181;28;20027;-64
2023/06/07 03:05:26;;;;;;;9.25;8.35;;;;;;;15.09;100.00;95839.31;5089048;28;20126;-64
2023/06/07 03:07:52;;;;;;;8.68;7.88;;;;;;;15.01;100.00;95840.16;5090628;28;20021;-64
2023/06/07 03:10:18;;;;;;;12.65;8.48;;;;;;;14.93;100.00;95845.47;5081748;28;20027;-64
2023/06/07 03:12:43;;;;;;;9.23;8.43;;;;;;;14.96;100.00;95853.09;5087788;28;20030;-64
2023/06/07 03:15:09;;;;;;;8.93;8.02;;;;;;;14.82;100.00;95873.94;5085723;28;20027;-64
2023/06/07 03:17:35;;;;;;;10.13;8.30;;;;;;;14.77;100.00;95870.97;5084848;28;20400;-65
2023/06/07 03:20:01;;;;;;;8.68;7.70;;;;;;;14.64;100.00;95871.41;5080459;28;20115;-65
2023/06/07 03:22:27;;;;;;;9.48;8.52;;;;;;;14.65;100.00;95880.16;5085555;28;20039;-65
2023/06/07 03:24:54;;;;;;;8.55;7.72;;;;;;;14.64;100.00;95884.66;5089117;28;20433;-65
2023/06/07 03:27:22;;;;;;;8.88;7.97;;;;;;;14.63;100.00;95879.50;5080442;28;20016;-64
2023/06/07 03:29:47;;;;;;;8.82;8.13;;;;;;;14.68;100.00;95882.50;5079781;28;20017;-64
2023/06/07 03:32:13;;;;;;;9.00;8.20;;;;;;;14.66;100.00;95889.78;5088381;28;20066;-65
2023/06/07 03:34:41;;;;;;;9.77;8.20;;;;;;;14.68;100.00;95887.78;5088157;28;20035;-64
2023/06/07 03:37:07;;;;;;;8.98;8.18;;;;;;;14.72;100.00;95886.53;5086048;28;20015;-64
2023/06/07 03:39:32;;;;;;;10.10;8.52;;;;;;;14.66;100.00;95879.16;5083207;28;20020;-65
2023/06/07 03:41:58;;;;;;;11.60;8.27;;;;;;;14.60;100.00;95886.78;5085956;28;20455;-65
2023/06/07 03:44:24;;;;;;;9.68;8.68;;;;;;;14.56;100.00;95890.75;5090942;28;20052;-64
2023/06/07 03:46:50;;;;;;;10.85;8.68;;;;;;;14.57;100.00;95894.22;5083972;28;20023;-64
2023/06/07 03:49:15;;;;;;;8.63;7.95;;;;;;;14.63;100.00;95901.53;5094908;28;20024;-64
2023/06/07 03:51:42;;;;;;;9.93;8.00;;;;;;;14.64;100.00;95907.66;5081909;28;20032;-65
2023/06/07 03:54:08;;;;;;;8.88;8.27;;;;;;;14.66;100.00;95910.97;5083710;28;20031;-65
2023/06/07 03:56:34;;;;;;;9.00;8.30;;;;;;;14.68;100.00;95908.97;5089278;28;20012;-65
2023/06/07 03:59:01;;;;;;;9.48;8.65;;;;;;;14.72;100.00;95908.53;5089837;28;20052;-65
2023/06/07 04:01:27;;;;;;;8.43;7.78;;;;;;;14.77;100.00;95920.47;5077480;28;20028;-64
2023/06/07 04:03:53;;;;;;;8.90;8.00;;;;;;;14.79;100.00;95918.47;5082830;28;20027;-65
2023/06/07 04:06:24;;;;;;;12.20;8.63;;;;;;;14.83;100.00;95917.19;5089804;28;20032;-64
2023/06/07 04:08:51;;;;;;;8.52;7.82;;;;;;;14.81;100.00;95922.63;5079076;28;20024;-64
2023/06/07 04:11:18;;;;;;;9.48;8.48;;;;;;;14.84;100.00;95934.75;5082785;28;20562;-65
2023/06/07 04:13:44;;;;;;;8.93;7.88;;;;;;;14.88;100.00;95930.78;5088030;28;20016;-65
2023/06/07 04:16:10;;;;;;;10.05;9.07;;;;;;;14.92;100.00;95932.09;5089741;28;20025;-65
2023/06/07 04:18:35;;;;;;;8.85;7.82;;;;;;;14.94;100.00;95929.28;5078334;28;20031;-64
2023/06/07 04:21:01;;;;;;;8.70;7.95;;;;;;;14.95;100.00;95929.13;5085903;28;20031;-65
2023/06/07 04:23:26;;;;;;;8.63;8.02;;;;;;;14.98;100.00;95933.28;5087901;28;20043;-64
2023/06/07 04:25:54;;;;;;;9.40;8.35;;;;;;;14.98;100.00;95931.44;5081844;28;20569;-65
2023/06/07 04:28:23;;;;;;;10.93;9.00;;;;;;;15.00;100.00;95939.25;5084481;28;20024;-64
2023/06/07 04:30:51;;;;;;;9.15;8.45;;;;;;;14.98;100.00;95936.75;5085582;28;20027;-64
2023/06/07 04:33:19;;;;;;;9.50;8.65;;;;;;;15.04;100.00;95940.56;5083409;28;20031;-64
2023/06/07 04:35:47;;;;;;;9.43;8.63;;;;;;;15.04;100.00;95940.56;5081393;28;20020;-65
2023/06/07 04:38:20;;;;;;;14.60;8.68;;;;;;;15.04;100.00;95940.56;5082756;28;20433;-64
2023/06/07 04:40:52;;;;;;;11.93;8.82;;;;;;;15.05;100.00;95942.22;5081365;28;20519;-64
2023/06/07 04:43:18;;;;;;;8.32;7.80;;;;;;;15.06;100.00;95949.19;5086864;28;20051;-64
2023/06/07 04:45:47;;;;;;;10.15;9.07;;;;;;;15.09;100.00;95948.84;5081217;28;20024;-64
2023/06/07 04:48:12;;;;;;;8.23;7.60;;;;;;;15.07;100.00;95950.84;5085840;28;20384;-65
2023/06/07 04:50:41;;;;;;;8.73;7.38;;;;;;;15.14;100.00;95937.75;5086110;28;20025;-65
2023/06/07 04:53:10;;;;;;;9.25;8.35;;;;;;;15.14;100.00;95946.56;5085294;28;20026;-64
2023/06/07 04:55:37;;;;;;;9.85;7.97;;;;;;;15.19;100.00;95956.66;5087097;28;20030;-65
2023/06/07 04:58:04;;;;;;;9.45;8.57;;;;;;;15.23;100.00;95957.97;5088173;28;20521;-66
2023/06/07 05:00:30;;;;;;;10.48;8.43;;;;;;;15.25;100.00;95957.81;5088518;28;20464;-66
2023/06/07 05:02:56;;;;;;;12.95;8.43;;;;;;;15.36;100.00;95956.66;5090911;28;20035;-67
2023/06/07 05:05:22;;;;;;;9.23;7.97;;;;;;;15.49;100.00;95964.13;5085774;28;20505;-65
2023/06/07 05:07:49;;;;;;;9.00;8.23;;;;;;;15.49;100.00;95962.31;5088698;28;20025;-66
2023/06/07 05:10:17;;;;;;;12.55;8.45;;;;;;;15.56;100.00;95965.94;5094618;28;20015;-66
2023/06/07 05:12:44;;;;;;;11.73;8.77;;;;;;;15.67;100.00;95966.59;5083696;28;20024;-65
2023/06/07 05:15:10;;;;;;;9.48;8.55;;;;;;;15.79;100.00;95967.09;5080097;28;20059;-66
2023/06/07 05:17:36;;;;;;;9.05;8.30;;;;;;;15.87;100.00;95961.78;5090004;28;20109;-66
2023/06/07 05:20:07;;;;;;;9.95;9.00;;;;;;;15.82;100.00;95964.94;5083711;28;20027;-66
2023/06/07 05:22:33;;;;;;;9.63;8.82;;;;;;;15.79;100.00;95962.63;5082868;28;20017;-65
2023/06/07 05:24:58;;;;;;;9.60;8.80;;;;;;;15.82;100.00;95958.81;5082161;28;20111;-66
2023/06/07 05:27:24;;;;;;;9.25;8.35;;;;;;;15.80;100.00;95961.63;5094804;28;20031;-65
2023/06/07 05:29:49;;;;;;;9.13;8.32;;;;;;;15.83;100.00;95961.28;5084095;28;20578;-66
2023/06/07 05:32:14;;;;;;;11.85;8.48;;;;;;;15.83;100.00;95958.63;5082418;28;20021;-66
2023/06/07 05:34:40;;;;;;;9.98;8.63;;;;;;;15.82;100.00;95953.50;5088716;28;20032;-66
2023/06/07 05:37:06;;;;;;;12.65;8.45;;;;;;;15.84;100.00;95964.78;5098447;28;20019;-65
2023/06/07 05:39:32;;;;;;;8.43;7.75;;;;;;;15.88;100.00;95968.75;5084713;28;20031;-65
2023/06/07 05:41:58;;;;;;;9.80;8.80;;;;;;;16.04;100.00;95974.06;5089969;28;20032;-66
2023/06/07 05:44:23;;;;;;;10.75;7.97;;;;;;;16.25;100.00;95964.72;5084167;28;20297;-66
2023/06/07 05:46:49;;;;;;;9.63;7.88;;;;;;;16.40;100.00;95966.66;5081336;28;20586;-66
2023/06/07 05:52:37;;;;;;;8.27;7.40;;;;;;;16.50;100.00;95951.34;5084527;28;20061;-69
2023/06/07 05:55:03;;;;;;;9.20;8.50;;;;;;;16.55;100.00;95948.97;5078382;28;20411;-69
2023/06/07 05:57:29;;;;;;;8.52;7.65;;;;;;;16.63;100.00;95939.31;5080249;28;20032;-67
2023/06/07 05:59:55;;;;;;;8.50;7.90;;;;;;;16.57;100.00;95946.13;5084573;28;20028;-68
2023/06/07 06:02:20;;;;;;;8.52;7.63;;;;;;;16.67;100.00;95945.94;5086953;28;20054;-68
2023/06/07 06:04:47;;;;;;;8.13;7.53;;;;;;;16.79;100.00;95936.56;5083850;28;20052;-67
2023/06/07 06:07:13;;;;;;;9.55;8.30;;;;;;;16.85;100.00;95940.38;5086562;28;20020;-68
2023/06/07 06:09:40;;;;;;;9.48;7.18;;;;;;;16.83;100.00;95935.22;5085818;28;20549;-68
2023/06/07 06:12:06;;;;;;;8.30;7.57;;;;;;;16.95;100.00;95921.53;5084519;28;20056;-67
2023/06/07 06:14:32;;;;;;;8.48;7.70;;;;;;;17.08;100.00;95932.41;5083534;28;20035;-67
2023/06/07 06:16:57;;;;;;;8.32;7.57;;;;;;;17.21;100.00;95920.38;5082182;28;20498;-68
2023/06/07 06:19:23;;;;;;;8.60;7.70;;;;;;;17.31;100.00;95918.28;5091315;28;20034;-68
2023/06/07 06:21:49;;;;;;;8.40;7.80;;;;;;;17.46;100.00;95913.84;5085303;28;20078;-69
2023/06/07 06:24:14;;;;;;;8.52;7.88;;;;;;;17.56;100.00;95902.09;5087498;28;20052;-64
2023/06/07 06:26:40;;;;;;;8.27;7.47;;;;;;;17.67;100.00;95901.69;5081195;28;20373;-68
2023/06/07 06:29:05;;;;;;;9.30;7.28;;;;;;;17.80;100.00;95905.56;5091925;28;20040;-69
2023/06/07 06:31:30;;;;;;;8.95;8.10;;;;;;;17.90;100.00;95890.97;5083511;28;20052;-68
2023/06/07 06:33:56;;;;;;;9.07;8.30;;;;;;;18.04;100.00;95894.66;5085096;28;20028;-69
2023/06/07 06:36:21;;;;;;;10.20;8.57;;;;;;;18.09;100.00;95882.63;5087706;28;20024;-69
2023/06/07 06:38:47;;;;;;;8.55;7.78;;;;;;;18.33;100.00;95885.00;5085107;28;20021;-68
2023/06/07 06:41:13;;;;;;;9.10;8.40;;;;;;;18.69;100.00;95882.53;5092555;28;20119;-69
2023/06/07 06:43:39;;;;;;;10.32;7.88;;;;;;;18.71;100.00;95875.19;5080830;28;20020;-70
2023/06/07 06:46:04;;;;;;;9.65;8.07;;;;;;;19.09;100.00;95874.94;5075390;28;20463;-70
2023/06/07 06:48:29;;;;;;;9.02;8.00;;;;;;;19.41;100.00;95872.78;5088617;28;20593;-71
2023/06/07 06:50:55;;;;;;;9.90;8.35;;;;;;;19.69;100.00;95863.13;5086104;28;20050;-69
2023/06/07 06:53:20;;;;;;;9.07;7.97;;;;;;;19.98;100.00;95848.72;5080502;28;20024;-70
2023/06/07 06:55:46;;;;;;;10.05;8.18;;;;;;;20.17;100.00;95851.69;5085240;28;20031;-70
2023/06/07 06:58:11;;;;;;;11.68;7.82;;;;;;;20.44;100.00;95849.13;5084583;28;20020;-69
2023/06/07 07:00:40;;;;;;;9.20;8.30;;;;;;;20.51;100.00;95839.28;5079576;28;20124;-70
2023/06/07 07:03:05;;;;;;;8.85;7.65;;;;;;;20.81;100.00;95840.84;5087770;28;20019;-70
2023/06/07 07:05:31;;;;;;;8.00;7.20;;;;;;;20.50;100.00;95821.59;5080493;28;20041;-70
2023/06/07 07:07:56;;;;;;;7.75;6.90;;;;;;;20.16;100.00;95820.63;5089938;28;20024;-70
2023/06/07 07:10:22;;;;;;;9.02;8.20;;;;;;;20.45;100.00;95827.53;5086606;28;20397;-70
2023/06/07 07:12:47;;;;;;;7.88;7.28;;;;;;;20.83;100.00;95820.84;5085257;28;20019;-70
2023/06/07 07:15:13;;;;;;;7.68;6.95;;;;;;;21.18;100.00;95823.38;5083446;28;20107;-71
2023/06/07 07:17:48;;;;;;;8.25;7.50;;;;;;;21.49;100.00;95814.91;5089313;28;20038;-70
2023/06/07 07:20:16;;;;;;;7.97;7.35;;;;;;;21.64;100.00;95801.28;5087445;28;20077;-71
2023/06/07 07:22:43;;;;;;;8.25;7.05;;;;;;;21.64;100.00;95794.06;5079075;28;20017;-70
2023/06/07 07:25:10;;;;;;;7.50;6.88;;;;;;;21.39;100.00;95800.09;5084399;28;20020;-70
2023/06/07 07:27:35;;;;;;;7.43;6.72;;;;;;;21.64;100.00;95799.44;5092649;28;20073;-70
2023/06/07 07:30:01;;;;;;;7.70;6.13;;;;;;;21.35;100.00;95796.19;5085799;28;20021;-71
2023/06/07 07:32:26;;;;;;;7.53;6.65;;;;;;;21.56;100.00;95797.00;5088382;28;20027;-70
2023/06/07 07:34:52;;;;;;;7.78;6.78;;;;;;;22.17;100.00;95792.28;5082176;28;20283;-70
2023/06/07 07:37:17;;;;;;;8.27;6.75;;;;;;;22.46;100.00;95785.56;5092369;28;20024;-70
2023/06/07 07:39:43;;;;;;;7.32;6.63;;;;;;;22.84;100.00;95775.81;5076143;28;20482;-72
2023/06/07 07:42:08;;;;;;;9.10;6.75;;;;;;;22.84;100.00;95764.28;5084668;28;20024;-72
2023/06/07 07:44:34;;;;;;;7.32;6.80;;;;;;;22.51;100.00;95768.84;5081179;28;20392;-72
2023/06/07 07:47:00;;;;;;;7.38;6.68;;;;;;;22.56;100.00;95763.63;5086981;28;20033;-72
2023/06/07 07:49:25;;;;;;;8.52;7.07;;;;;;;22.60;100.00;95761.34;5090405;28;20028;-72
2023/06/07 07:51:50;;;;;;;8.65;6.95;;;;;;;21.97;100.00;95757.53;5079647;28;20084;-72
2023/06/07 07:54:16;;;;;;;7.28;6.70;;;;;;;22.14;100.00;95765.91;5089600;28;20384;-72
2023/06/07 07:56:43;;;;;;;7.18;6.57;;;;;;;22.52;100.00;95751.69;5088454;28;20056;-71
2023/06/07 07:59:08;;;;;;;9.10;7.38;;;;;;;22.50;100.00;95752.94;5086105;28;20025;-69
2023/06/07 08:01:34;;;;;;;7.68;6.38;;;;;;;22.26;100.00;95742.75;5081490;28;20084;-69
2023/06/07 08:03:59;;;;;;;6.80;6.20;;;;;;;22.69;100.00;95746.63;5085675;28;20023;-69
2023/06/07 08:06:25;;;;;;;8.02;6.80;;;;;;;22.85;100.00;95745.25;5088058;28;20525;-69
2023/06/07 08:08:51;;;;;;;14.45;6.78;;;;;;;22.92;100.00;95739.03;5088043;28;20477;-70
2023/06/07 08:11:17;;;;;;;7.05;6.43;;;;;;;22.97;100.00;95733.84;5091381;28;20041;-69
2023/06/07 08:13:42;;;;;;;7.10;6.45;;;;;;;22.72;100.00;95731.97;5080754;28;20060;-70
2023/06/07 08:16:08;;;;;;;7.30;6.63;;;;;;;23.15;100.00;95720.47;5090826;28;20020;-69
2023/06/07 08:18:33;;;;;;;7.47;6.82;;;;;;;23.06;100.00;95712.91;5084894;28;20027;-69
2023/06/07 08:20:59;;;;;;;7.47;6.75;;;;;;;23.10;100.00;95714.09;5078639;28;20051;-69
2023/06/07 08:23:24;;;;;;;7.93;6.90;;;;;;;23.41;100.00;95717.75;5084761;28;20062;-70
2023/06/07 08:25:49;;;;;;;7.22;6.63;;;;;;;23.10;100.00;95712.25;5089866;28;20027;-70
2023/06/07 08:28:16;;;;;;;8.57;6.45;;;;;;;23.38;100.00;95702.06;5090956;28;20023;-70
2023/06/07 08:30:42;;;;;;;6.68;6.15;;;;;;;23.57;100.00;95692.19;5084903;28;20020;-70
2023/06/07 08:33:07;;;;;;;7.50;6.00;;;;;;;23.74;100.00;95695.06;5091162;28;20069;-70
2023/06/07 08:35:33;;;;;;;7.22;6.57;;;;;;;23.91;100.00;95697.94;5095349;28;20028;-70
2023/06/07 08:38:00;;;;;;;7.20;6.57;;;;;;;24.07;100.00;95687.66;5087768;28;20396;-70
2023/06/07 08:40:26;;;;;;;7.65;6.15;;;;;;;24.31;100.00;95694.75;5086095;28;20438;-69
2023/06/07 08:42:51;;;;;;;10.15;6.15;;;;;;;24.17;100.00;95680.69;5082058;28;20476;-70
2023/06/07 08:45:17;;;;;;;6.95;6.32;;;;;;;23.92;100.00;95686.16;5090674;28;20085;-70
2023/06/07 08:47:47;;;;;;;6.88;6.28;;;;;;;24.29;100.00;95683.41;5088052;28;20023;-70
2023/06/07 08:50:13;;;;;;;7.15;5.78;;;;;;;24.48;100.00;95679.81;5096785;28;20099;-70
2023/06/07 08:52:40;;;;;;;6.70;6.15;;;;;;;24.68;100.00;95669.56;5086424;28;20017;-70
2023/06/07 08:55:12;;;;;;;6.45;5.72;;;;;;;25.06;100.00;95678.28;5089809;28;20016;-70
2023/06/07 08:57:37;;;;;;;6.57;6.07;;;;;;;24.84;100.00;95673.47;5089438;28;20024;-70
2023/06/07 09:00:06;;;;;;;6.60;5.85;;;;;;;24.66;100.00;95668.97;5083004;28;20049;-70
2023/06/07 09:02:32;;;;;;;6.53;5.93;;;;;;;24.78;100.00;95666.34;5081104;28;20028;-70
2023/06/07 09:05:02;;;;;;;6.68;5.55;;;;;;;25.17;100.00;95674.78;5091623;28;20044;-70
2023/06/07 09:07:27;;;;;;;6.30;5.75;;;;;;;25.12;100.00;95663.91;5100031;28;20519;-70
2023/06/07 09:09:54;;;;;;;6.47;5.97;;;;;;;25.66;100.00;95667.47;5093398;28;20401;-70
2023/06/07 09:12:19;;;;;;;6.40;5.80;;;;;;;25.85;100.00;95671.63;5090686;28;20081;-70
2023/06/07 09:14:46;;;;;;;6.63;5.80;;;;;;;26.23;100.00;95672.09;5089652;28;20030;-71
2023/06/07 09:17:12;;;;;;;6.40;5.90;;;;;;;24.98;100.00;95663.31;5089585;28;20024;-71
2023/06/07 09:19:40;;;;;;;6.22;5.63;;;;;;;25.26;100.00;95669.03;5083087;28;20085;-70
2023/06/07 09:22:17;;;;;;;6.18;5.57;;;;;;;25.89;100.00;95663.88;5086555;28;20020;-70
2023/06/07 09:24:43;;;;;;;6.72;6.15;;;;;;;25.95;100.00;95662.91;5086281;28;20572;-70
2023/06/07 09:27:10;;;;;;;7.40;5.78;;;;;;;26.07;100.00;95662.06;5084133;28;20016;-71
2023/06/07 09:29:40;;;;;;;6.75;5.93;;;;;;;25.94;100.00;95655.88;5082060;28;20024;-70
2023/06/07 09:32:24;;;;;;;6.63;5.65;;;;;;;26.15;100.00;95650.88;5082802;28;20557;-70
2023/06/07 09:34:52;;;;;;;10.27;5.88;;;;;;;26.07;100.00;95646.66;5082652;28;20027;-70
2023/06/07 09:37:20;;;;;;;6.65;5.72;;;;;;;26.11;100.00;95638.94;5092456;28;20020;-71
2023/06/07 09:39:51;;;;;;;6.93;5.93;;;;;;;25.77;100.00;95645.03;5081893;28;20028;-70
2023/06/07 09:42:17;;;;;;;6.20;5.60;;;;;;;26.38;100.00;95643.72;5082041;28;20112;-70
2023/06/07 09:44:42;;;;;;;6.70;5.57;;;;;;;26.55;100.00;95641.06;5084248;28;20039;-70
2023/06/07 09:47:21;;;;;;;8.05;5.68;;;;;;;26.18;100.00;95639.63;5090648;28;20044;-71
2023/06/07 09:49:47;;;;;;;6.18;5.57;;;;;;;27.04;100.00;95626.97;5087842;28;20024;-71
2023/06/07 09:52:14;;;;;;;6.20;5.68;;;;;;;26.66;100.00;95628.56;5086811;28;20026;-71
2023/06/07 09:54:42;;;;;;;5.95;5.35;;;;;;;26.62;100.00;95622.81;5084778;28;20020;-71
2023/06/07 09:57:10;;;;;;;10.25;6.00;;;;;;;26.58;100.00;95619.78;5086572;28;20016;-71
2023/06/07 09:59:37;;;;;;;8.20;5.72;;;;;;;26.30;100.00;95626.06;5084420;28;20040;-71
2023/06/07 10:02:24;;;;;;;7.15;6.13;;;;;;;26.82;100.00;95621.50;5083294;28;20016;-71
2023/06/07 10:04:50;;;;;;;7.93;5.95;;;;;;;27.16;100.00;95619.59;5080611;28;20063;-71
2023/06/07 10:07:18;;;;;;;6.05;5.55;;;;;;;27.34;100.00;95614.13;5090541;28;20016;-71
2023/06/07 10:09:45;;;;;;;6.80;5.57;;;;;;;27.24;100.00;95609.41;5088447;28;20109;-71
2023/06/07 10:12:13;;;;;;;7.38;5.70;;;;;;;27.59;100.00;95610.97;5092978;28;20142;-71
2023/06/07 10:14:42;;;;;;;7.65;5.88;;;;;;;27.29;100.00;95606.75;5087886;28;20020;-71
2023/06/07 10:17:13;;;;;;;6.18;5.68;;;;;;;27.59;100.00;95605.56;5087523;28;20431;-71
2023/06/07 10:19:38;;;;;;;6.50;5.90;;;;;;;27.53;100.00;95610.06;5084493;28;20077;-71
2023/06/07 10:22:11;;;;;;;5.77;5.30;;;;;;;27.77;100.00;95598.19;5084081;28;20027;-71
2023/06/07 10:24:51;;;;;;;6.38;5.70;;;;;;;27.69;100.00;95599.44;5084391;28;20289;-72
2023/06/07 10:27:22;;;;;;;7.93;5.43;;;;;;;27.49;100.00;95597.28;5083394;28;20039;-71
2023/06/07 10:29:54;;;;;;;5.78;5.28;;;;;;;27.47;100.00;95605.66;5086658;28;20028;-72
2023/06/07 10:32:27;;;;;;;6.70;5.40;;;;;;;27.21;100.00;95596.41;5086964;28;20027;-71
2023/06/07 10:34:55;;;;;;;6.18;5.57;;;;;;;27.39;100.00;95597.97;5081751;28;20031;-73
2023/06/07 10:37:20;;;;;;;5.70;5.18;;;;;;;28.43;100.00;95599.91;5090730;28;20024;-71
2023/06/07 10:39:46;;;;;;;6.43;5.47;;;;;;;27.72;100.00;95594.34;5082557;28;20078;-71
2023/06/07 10:42:12;;;;;;;6.95;4.88;;;;;;;28.01;100.00;95596.81;5085925;28;20070;-71
2023/06/07 10:44:38;;;;;;;6.10;5.50;;;;;;;27.97;100.00;95590.28;5090468;28;20026;-71
2023/06/07 10:47:22;;;;;;;5.97;5.47;;;;;;;28.06;100.00;95597.94;5084365;28;20012;-71
2023/06/07 10:49:48;;;;;;;6.05;5.50;;;;;;;28.08;100.00;95590.38;5084935;28;20249;-71
2023/06/07 10:52:15;;;;;;;6.35;5.80;;;;;;;28.13;100.00;95587.72;5086639;28;20038;-71
2023/06/07 10:54:43;;;;;;;6.03;5.53;;;;;;;28.23;100.00;95587.84;5084116;28;20044;-71
2023/06/07 10:57:09;;;;;;;6.18;5.68;;;;;;;28.59;100.00;95579.19;5082970;28;20415;-71
2023/06/07 10:59:35;;;;;;;6.30;5.80;;;;;;;29.16;100.00;95580.38;5084146;28;20028;-71
2023/06/07 11:02:33;;;;;;;5.93;5.43;;;;;;;28.88;100.00;95585.09;5083879;28;20020;-72
2023/06/07 11:05:03;;;;;;;6.25;5.65;;;;;;;28.03;100.00;95588.41;5077960;28;20409;-72
2023/06/07 11:07:30;;;;;;;5.55;5.05;;;;;;;27.70;100.00;95582.94;5093238;28;20101;-72
2023/06/07 11:10:04;;;;;;;8.43;5.20;;;;;;;28.52;100.00;95581.31;5087659;28;20024;-71
2023/06/07 11:12:44;;;;;;;6.97;5.18;;;;;;;28.85;100.00;95577.50;5083773;28;20055;-72
2023/06/07 11:15:24;;;;;;;8.02;5.32;;;;;;;29.02;100.00;95576.50;5082535;28;20035;-71
2023/06/07 11:17:56;;;;;;;10.73;5.35;;;;;;;29.15;100.00;95575.22;5082603;28;20032;-71
2023/06/07 11:20:37;;;;;;;5.72;5.20;;;;;;;28.62;100.00;95567.84;5088148;28;20013;-71
2023/06/07 11:23:27;;;;;;;6.15;5.18;;;;;;;29.16;100.00;95582.25;5088324;28;20055;-73
2023/06/07 11:25:57;;;;;;;7.78;5.10;;;;;;;28.26;100.00;95583.78;5089532;28;20030;-74
2023/06/07 11:28:26;;;;;;;6.78;4.68;;;;;;;28.38;100.00;95567.38;5083964;28;20023;-72